Other Surface Observations
Issued by NWS Missoula, MT

Home | Current Version | Previous Version | Text Only | Print | Product List | Glossary On
Versions: 1 2 3 4 5 6 7 8 9 10 11 12 13 14 15 16 17 18 19 20 21 22 23 24 25 26 27 28 29 30 31 32 33 34 35 36 37 38 39 40 41 42 43 44 45 46 47 48 49 50
000
SXUS55 KMSO 240103
OSOMSO
MONTANA AWOS SUMMARY
NATIONAL WEATHER SERVICE MISSOULA MT
703 PM MDT SUN NOV 23 2014

Montana AWOS Reports

LAUREL      |K6S8 240055Z AUTO 25006KT 40SM 03/M11 A2986 RMK AO1 T00331105
PLAINS      |KS34 240055Z AUTO 00000KT 40SM 03/M01 A2994 RMK AO1 T00281005
TWIN BRIDGES|K7S1 240055Z AUTO 09006KT 40SM 02/M09 A2994 RMK AO1 T00171088
MALTA       |KM75 240055Z AUTO 00000KT 40SM 01/M06 A2979 RMK AO1 T00061060




USA.gov is the U.S. government's official web portal to all federal, state and local government web resources and services.